sensor_id;sensor_type;location;lat;lon;timestamp;P1;durP1;ratioP1;P2;durP2;ratioP2
66593;SDS011;53450;42.584;23.366;2022-08-03T00:01:43;2.13;;;1.90;;
66593;SDS011;53450;42.584;23.366;2022-08-03T00:04:09;7.40;;;2.10;;
66593;SDS011;53450;42.584;23.366;2022-08-03T00:06:35;3.08;;;1.80;;
66593;SDS011;53450;42.584;23.366;2022-08-03T00:09:02;2.00;;;1.90;;
66593;SDS011;53450;42.584;23.366;2022-08-03T00:11:29;2.00;;;1.60;;
66593;SDS011;53450;42.584;23.366;2022-08-03T00:13:55;1.90;;;1.70;;
66593;SDS011;53450;42.584;23.366;2022-08-03T00:16:20;1.80;;;1.65;;
66593;SDS011;53450;42.584;23.366;2022-08-03T00:18:46;2.33;;;1.90;;
66593;SDS011;53450;42.584;23.366;2022-08-03T00:21:11;1.77;;;1.67;;
66593;SDS011;53450;42.584;23.366;2022-08-03T00:23:37;1.80;;;1.60;;
66593;SDS011;53450;42.584;23.366;2022-08-03T00:26:03;2.38;;;1.90;;
66593;SDS011;53450;42.584;23.366;2022-08-03T00:28:28;2.50;;;2.00;;
66593;SDS011;53450;42.584;23.366;2022-08-03T00:30:54;9.90;;;2.40;;
66593;SDS011;53450;42.584;23.366;2022-08-03T00:33:20;4.28;;;1.80;;
66593;SDS011;53450;42.584;23.366;2022-08-03T00:35:46;1.80;;;1.70;;
66593;SDS011;53450;42.584;23.366;2022-08-03T00:38:12;3.30;;;1.85;;
66593;SDS011;53450;42.584;23.366;2022-08-03T00:40:37;2.70;;;1.80;;
66593;SDS011;53450;42.584;23.366;2022-08-03T00:43:05;4.40;;;1.90;;
66593;SDS011;53450;42.584;23.366;2022-08-03T00:45:33;1.67;;;1.58;;
66593;SDS011;53450;42.584;23.366;2022-08-03T00:48:00;1.70;;;1.60;;
66593;SDS011;53450;42.584;23.366;2022-08-03T00:51:04;6.63;;;1.77;;
66593;SDS011;53450;42.584;23.366;2022-08-03T00:53:30;9.48;;;1.80;;
66593;SDS011;53450;42.584;23.366;2022-08-03T00:55:56;2.00;;;1.90;;
66593;SDS011;53450;42.584;23.366;2022-08-03T00:58:22;1.70;;;1.60;;
66593;SDS011;53450;42.584;23.366;2022-08-03T01:00:48;2.95;;;1.67;;
66593;SDS011;53450;42.584;23.366;2022-08-03T01:03:14;1.80;;;1.60;;
66593;SDS011;53450;42.584;23.366;2022-08-03T01:09:07;3.88;;;1.70;;
66593;SDS011;53450;42.584;23.366;2022-08-03T01:14:54;4.35;;;1.85;;
66593;SDS011;53450;42.584;23.366;2022-08-03T01:20:12;3.88;;;1.90;;
66593;SDS011;53450;42.584;23.366;2022-08-03T01:31:47;2.08;;;1.63;;
66593;SDS011;53450;42.584;23.366;2022-08-03T01:34:19;2.40;;;1.80;;
66593;SDS011;53450;42.584;23.366;2022-08-03T01:36:48;3.72;;;1.83;;
66593;SDS011;53450;42.584;23.366;2022-08-03T01:39:16;2.10;;;1.90;;
66593;SDS011;53450;42.584;23.366;2022-08-03T01:41:46;3.35;;;1.85;;
66593;SDS011;53450;42.584;23.366;2022-08-03T01:44:14;2.20;;;2.03;;
66593;SDS011;53450;42.584;23.366;2022-08-03T01:46:41;6.63;;;1.90;;
66593;SDS011;53450;42.584;23.366;2022-08-03T01:49:08;3.92;;;1.83;;
66593;SDS011;53450;42.584;23.366;2022-08-03T01:51:40;4.50;;;2.05;;
66593;SDS011;53450;42.584;23.366;2022-08-03T01:54:08;3.03;;;2.28;;
66593;SDS011;53450;42.584;23.366;2022-08-03T01:56:36;4.65;;;2.22;;
66593;SDS011;53450;42.584;23.366;2022-08-03T01:59:03;2.65;;;2.17;;
66593;SDS011;53450;42.584;23.366;2022-08-03T02:01:31;3.50;;;2.50;;
66593;SDS011;53450;42.584;23.366;2022-08-03T02:03:58;2.70;;;2.20;;
66593;SDS011;53450;42.584;23.366;2022-08-03T02:06:24;2.53;;;2.25;;
66593;SDS011;53450;42.584;23.366;2022-08-03T02:08:51;6.53;;;2.17;;
66593;SDS011;53450;42.584;23.366;2022-08-03T02:11:19;2.25;;;2.10;;
66593;SDS011;53450;42.584;23.366;2022-08-03T02:13:45;2.88;;;2.15;;
66593;SDS011;53450;42.584;23.366;2022-08-03T02:16:13;2.80;;;2.30;;
66593;SDS011;53450;42.584;23.366;2022-08-03T02:18:41;3.90;;;2.13;;
66593;SDS011;53450;42.584;23.366;2022-08-03T02:21:08;3.38;;;2.40;;
66593;SDS011;53450;42.584;23.366;2022-08-03T02:23:36;2.47;;;2.28;;
66593;SDS011;53450;42.584;23.366;2022-08-03T02:26:03;2.60;;;2.03;;
66593;SDS011;53450;42.584;23.366;2022-08-03T02:28:32;2.15;;;2.03;;
66593;SDS011;53450;42.584;23.366;2022-08-03T02:31:02;2.33;;;2.13;;
66593;SDS011;53450;42.584;23.366;2022-08-03T02:33:31;4.22;;;2.17;;
66593;SDS011;53450;42.584;23.366;2022-08-03T02:36:00;2.45;;;2.25;;
66593;SDS011;53450;42.584;23.366;2022-08-03T02:38:30;2.78;;;2.40;;
66593;SDS011;53450;42.584;23.366;2022-08-03T02:41:00;2.45;;;2.25;;
66593;SDS011;53450;42.584;23.366;2022-08-03T02:43:31;3.05;;;2.00;;
66593;SDS011;53450;42.584;23.366;2022-08-03T02:46:00;3.03;;;2.03;;
66593;SDS011;53450;42.584;23.366;2022-08-03T02:48:27;2.63;;;2.22;;
66593;SDS011;53450;42.584;23.366;2022-08-03T02:50:55;3.45;;;2.67;;
66593;SDS011;53450;42.584;23.366;2022-08-03T02:53:47;3.15;;;2.63;;
66593;SDS011;53450;42.584;23.366;2022-08-03T02:56:39;3.67;;;2.65;;
66593;SDS011;53450;42.584;23.366;2022-08-03T02:59:06;2.40;;;2.20;;
66593;SDS011;53450;42.584;23.366;2022-08-03T03:01:34;2.72;;;2.50;;
66593;SDS011;53450;42.584;23.366;2022-08-03T03:04:00;3.38;;;2.70;;
66593;SDS011;53450;42.584;23.366;2022-08-03T03:06:26;4.88;;;2.25;;
66593;SDS011;53450;42.584;23.366;2022-08-03T03:08:52;4.78;;;2.40;;
66593;SDS011;53450;42.584;23.366;2022-08-03T03:11:19;2.83;;;2.20;;
66593;SDS011;53450;42.584;23.366;2022-08-03T03:13:47;2.80;;;2.40;;
66593;SDS011;53450;42.584;23.366;2022-08-03T03:16:13;2.75;;;2.55;;
66593;SDS011;53450;42.584;23.366;2022-08-03T03:18:40;5.18;;;2.63;;
66593;SDS011;53450;42.584;23.366;2022-08-03T03:21:08;3.00;;;2.70;;
66593;SDS011;53450;42.584;23.366;2022-08-03T03:23:36;2.63;;;2.42;;
66593;SDS011;53450;42.584;23.366;2022-08-03T03:26:02;3.95;;;2.97;;
66593;SDS011;53450;42.584;23.366;2022-08-03T03:28:29;4.07;;;2.30;;
66593;SDS011;53450;42.584;23.366;2022-08-03T03:30:56;4.28;;;2.63;;
66593;SDS011;53450;42.584;23.366;2022-08-03T03:33:23;3.00;;;2.70;;
66593;SDS011;53450;42.584;23.366;2022-08-03T03:35:49;4.57;;;3.00;;
66593;SDS011;53450;42.584;23.366;2022-08-03T03:38:16;6.22;;;2.97;;
66593;SDS011;53450;42.584;23.366;2022-08-03T03:40:42;3.58;;;3.20;;
66593;SDS011;53450;42.584;23.366;2022-08-03T03:43:09;3.10;;;2.80;;
66593;SDS011;53450;42.584;23.366;2022-08-03T03:45:36;4.47;;;3.03;;
66593;SDS011;53450;42.584;23.366;2022-08-03T03:48:05;4.05;;;2.85;;
66593;SDS011;53450;42.584;23.366;2022-08-03T03:50:32;3.08;;;2.78;;
66593;SDS011;53450;42.584;23.366;2022-08-03T03:52:58;4.47;;;3.15;;
66593;SDS011;53450;42.584;23.366;2022-08-03T03:55:24;7.68;;;3.75;;
66593;SDS011;53450;42.584;23.366;2022-08-03T03:57:49;8.27;;;4.28;;
66593;SDS011;53450;42.584;23.366;2022-08-03T04:00:16;10.82;;;5.00;;
66593;SDS011;53450;42.584;23.366;2022-08-03T04:02:43;11.75;;;6.78;;
66593;SDS011;53450;42.584;23.366;2022-08-03T04:05:09;24.25;;;10.65;;
66593;SDS011;53450;42.584;23.366;2022-08-03T04:10:41;13.18;;;6.97;;
66593;SDS011;53450;42.584;23.366;2022-08-03T04:13:31;25.02;;;6.97;;
66593;SDS011;53450;42.584;23.366;2022-08-03T04:15:59;15.75;;;4.80;;
66593;SDS011;53450;42.584;23.366;2022-08-03T04:18:26;50.90;;;7.65;;
66593;SDS011;53450;42.584;23.366;2022-08-03T04:20:55;20.27;;;5.05;;
66593;SDS011;53450;42.584;23.366;2022-08-03T04:23:25;13.68;;;4.40;;
66593;SDS011;53450;42.584;23.366;2022-08-03T04:25:52;8.88;;;3.03;;
66593;SDS011;53450;42.584;23.366;2022-08-03T04:28:19;6.75;;;3.50;;
66593;SDS011;53450;42.584;23.366;2022-08-03T04:30:46;7.90;;;4.20;;
66593;SDS011;53450;42.584;23.366;2022-08-03T04:33:15;23.65;;;15.68;;
66593;SDS011;53450;42.584;23.366;2022-08-03T04:35:43;11.20;;;7.45;;
66593;SDS011;53450;42.584;23.366;2022-08-03T04:38:11;7.05;;;4.90;;
66593;SDS011;53450;42.584;23.366;2022-08-03T04:41:04;10.73;;;5.88;;
66593;SDS011;53450;42.584;23.366;2022-08-03T04:43:58;9.13;;;5.53;;
66593;SDS011;53450;42.584;23.366;2022-08-03T04:46:28;31.23;;;5.80;;
66593;SDS011;53450;42.584;23.366;2022-08-03T04:48:57;12.88;;;4.95;;
66593;SDS011;53450;42.584;23.366;2022-08-03T04:51:23;27.58;;;4.93;;
66593;SDS011;53450;42.584;23.366;2022-08-03T04:53:50;167.48;;;11.25;;
66593;SDS011;53450;42.584;23.366;2022-08-03T04:56:16;10.32;;;4.40;;
66593;SDS011;53450;42.584;23.366;2022-08-03T04:58:41;15.77;;;3.45;;
66593;SDS011;53450;42.584;23.366;2022-08-03T05:01:07;8.52;;;3.35;;
66593;SDS011;53450;42.584;23.366;2022-08-03T05:03:33;5.25;;;3.22;;
66593;SDS011;53450;42.584;23.366;2022-08-03T05:05:58;5.40;;;3.03;;
66593;SDS011;53450;42.584;23.366;2022-08-03T05:08:24;4.43;;;2.95;;
66593;SDS011;53450;42.584;23.366;2022-08-03T05:10:49;5.15;;;2.80;;
66593;SDS011;53450;42.584;23.366;2022-08-03T05:13:15;3.63;;;3.00;;
66593;SDS011;53450;42.584;23.366;2022-08-03T05:15:40;9.90;;;3.50;;
66593;SDS011;53450;42.584;23.366;2022-08-03T05:18:31;8.98;;;2.70;;
66593;SDS011;53450;42.584;23.366;2022-08-03T05:20:57;9.70;;;2.65;;
66593;SDS011;53450;42.584;23.366;2022-08-03T05:23:23;11.63;;;2.83;;
66593;SDS011;53450;42.584;23.366;2022-08-03T05:25:49;8.88;;;2.63;;
66593;SDS011;53450;42.584;23.366;2022-08-03T05:28:14;2.85;;;2.65;;
66593;SDS011;53450;42.584;23.366;2022-08-03T05:30:40;6.40;;;2.85;;
66593;SDS011;53450;42.584;23.366;2022-08-03T05:33:05;2.70;;;2.47;;
66593;SDS011;53450;42.584;23.366;2022-08-03T05:35:58;3.30;;;2.78;;
66593;SDS011;53450;42.584;23.366;2022-08-03T05:38:49;19.38;;;3.22;;
66593;SDS011;53450;42.584;23.366;2022-08-03T05:41:40;39.97;;;4.53;;
66593;SDS011;53450;42.584;23.366;2022-08-03T05:44:31;16.45;;;3.22;;
66593;SDS011;53450;42.584;23.366;2022-08-03T05:46:57;7.97;;;2.85;;
66593;SDS011;53450;42.584;23.366;2022-08-03T05:49:23;9.82;;;3.13;;
66593;SDS011;53450;42.584;23.366;2022-08-03T05:51:49;6.10;;;2.85;;
66593;SDS011;53450;42.584;23.366;2022-08-03T05:54:14;16.75;;;3.72;;
66593;SDS011;53450;42.584;23.366;2022-08-03T05:56:40;6.10;;;2.95;;
66593;SDS011;53450;42.584;23.366;2022-08-03T05:59:06;5.80;;;2.88;;
66593;SDS011;53450;42.584;23.366;2022-08-03T06:01:57;9.20;;;3.03;;
66593;SDS011;53450;42.584;23.366;2022-08-03T06:04:22;6.13;;;2.90;;
66593;SDS011;53450;42.584;23.366;2022-08-03T06:06:48;12.70;;;3.15;;
66593;SDS011;53450;42.584;23.366;2022-08-03T06:09:15;4.72;;;3.03;;
66593;SDS011;53450;42.584;23.366;2022-08-03T06:11:41;11.32;;;3.25;;
66593;SDS011;53450;42.584;23.366;2022-08-03T06:14:07;8.80;;;2.70;;
66593;SDS011;53450;42.584;23.366;2022-08-03T06:16:32;4.00;;;2.90;;
66593;SDS011;53450;42.584;23.366;2022-08-03T06:18:59;9.18;;;3.03;;
66593;SDS011;53450;42.584;23.366;2022-08-03T06:21:25;5.70;;;2.75;;
66593;SDS011;53450;42.584;23.366;2022-08-03T06:23:51;5.43;;;2.80;;
66593;SDS011;53450;42.584;23.366;2022-08-03T06:26:16;6.25;;;2.80;;
66593;SDS011;53450;42.584;23.366;2022-08-03T06:28:43;8.95;;;3.03;;
66593;SDS011;53450;42.584;23.366;2022-08-03T06:31:09;9.85;;;3.25;;
66593;SDS011;53450;42.584;23.366;2022-08-03T06:33:35;7.03;;;3.15;;
66593;SDS011;53450;42.584;23.366;2022-08-03T06:36:01;7.43;;;2.65;;
66593;SDS011;53450;42.584;23.366;2022-08-03T06:38:27;3.63;;;2.90;;
66593;SDS011;53450;42.584;23.366;2022-08-03T06:40:53;3.13;;;2.60;;
66593;SDS011;53450;42.584;23.366;2022-08-03T06:43:18;5.22;;;3.47;;
66593;SDS011;53450;42.584;23.366;2022-08-03T06:45:44;3.45;;;2.83;;
66593;SDS011;53450;42.584;23.366;2022-08-03T06:48:11;11.45;;;3.25;;
66593;SDS011;53450;42.584;23.366;2022-08-03T06:50:38;5.53;;;3.30;;
66593;SDS011;53450;42.584;23.366;2022-08-03T06:54:43;5.47;;;3.13;;
66593;SDS011;53450;42.584;23.366;2022-08-03T06:57:09;3.35;;;3.05;;
66593;SDS011;53450;42.584;23.366;2022-08-03T06:59:35;3.53;;;3.00;;
66593;SDS011;53450;42.584;23.366;2022-08-03T07:02:01;2.90;;;2.70;;
66593;SDS011;53450;42.584;23.366;2022-08-03T07:04:27;3.80;;;2.78;;
66593;SDS011;53450;42.584;23.366;2022-08-03T07:06:52;8.55;;;2.60;;
66593;SDS011;53450;42.584;23.366;2022-08-03T07:09:19;5.85;;;2.70;;
66593;SDS011;53450;42.584;23.366;2022-08-03T07:11:44;3.75;;;2.85;;
66593;SDS011;53450;42.584;23.366;2022-08-03T07:14:10;5.75;;;2.80;;
66593;SDS011;53450;42.584;23.366;2022-08-03T07:16:36;5.60;;;3.00;;
66593;SDS011;53450;42.584;23.366;2022-08-03T07:19:01;7.68;;;2.60;;
66593;SDS011;53450;42.584;23.366;2022-08-03T07:21:27;5.82;;;2.83;;
66593;SDS011;53450;42.584;23.366;2022-08-03T07:23:52;3.38;;;2.38;;
66593;SDS011;53450;42.584;23.366;2022-08-03T07:26:18;5.85;;;2.80;;
66593;SDS011;53450;42.584;23.366;2022-08-03T07:28:44;3.80;;;2.33;;
66593;SDS011;53450;42.584;23.366;2022-08-03T07:31:34;13.18;;;3.03;;
66593;SDS011;53450;42.584;23.366;2022-08-03T07:34:03;15.13;;;3.35;;
66593;SDS011;53450;42.584;23.366;2022-08-03T07:36:29;7.18;;;2.90;;
66593;SDS011;53450;42.584;23.366;2022-08-03T07:38:56;10.45;;;3.30;;
66593;SDS011;53450;42.584;23.366;2022-08-03T07:41:22;7.55;;;2.83;;
66593;SDS011;53450;42.584;23.366;2022-08-03T07:43:48;4.13;;;2.78;;
66593;SDS011;53450;42.584;23.366;2022-08-03T07:46:13;5.18;;;3.20;;
66593;SDS011;53450;42.584;23.366;2022-08-03T07:48:39;10.35;;;3.40;;
66593;SDS011;53450;42.584;23.366;2022-08-03T07:51:05;10.93;;;2.88;;
66593;SDS011;53450;42.584;23.366;2022-08-03T07:53:56;7.70;;;3.10;;
66593;SDS011;53450;42.584;23.366;2022-08-03T07:56:47;9.38;;;3.47;;
66593;SDS011;53450;42.584;23.366;2022-08-03T07:59:13;11.68;;;3.80;;
66593;SDS011;53450;42.584;23.366;2022-08-03T08:01:38;16.00;;;3.92;;
66593;SDS011;53450;42.584;23.366;2022-08-03T08:04:04;6.22;;;2.90;;
66593;SDS011;53450;42.584;23.366;2022-08-03T08:06:29;5.43;;;3.08;;
66593;SDS011;53450;42.584;23.366;2022-08-03T08:08:56;12.65;;;3.42;;
66593;SDS011;53450;42.584;23.366;2022-08-03T08:11:25;6.63;;;3.58;;
66593;SDS011;53450;42.584;23.366;2022-08-03T08:13:51;9.68;;;3.10;;
66593;SDS011;53450;42.584;23.366;2022-08-03T08:16:16;5.72;;;2.92;;
66593;SDS011;53450;42.584;23.366;2022-08-03T08:18:42;13.68;;;3.58;;
66593;SDS011;53450;42.584;23.366;2022-08-03T08:21:07;5.72;;;3.30;;
66593;SDS011;53450;42.584;23.366;2022-08-03T08:23:34;8.48;;;3.53;;
66593;SDS011;53450;42.584;23.366;2022-08-03T08:25:59;12.88;;;3.70;;
66593;SDS011;53450;42.584;23.366;2022-08-03T08:28:25;18.95;;;4.47;;
66593;SDS011;53450;42.584;23.366;2022-08-03T08:30:51;8.27;;;3.53;;
66593;SDS011;53450;42.584;23.366;2022-08-03T08:33:16;7.95;;;3.60;;
66593;SDS011;53450;42.584;23.366;2022-08-03T08:37:45;8.05;;;3.45;;
66593;SDS011;53450;42.584;23.366;2022-08-03T08:40:11;18.13;;;4.05;;
66593;SDS011;53450;42.584;23.366;2022-08-03T08:42:37;11.85;;;4.00;;
66593;SDS011;53450;42.584;23.366;2022-08-03T08:45:04;17.98;;;4.13;;
66593;SDS011;53450;42.584;23.366;2022-08-03T08:47:33;9.05;;;3.97;;
66593;SDS011;53450;42.584;23.366;2022-08-03T08:50:02;9.52;;;4.05;;
66593;SDS011;53450;42.584;23.366;2022-08-03T08:52:29;15.02;;;4.45;;
66593;SDS011;53450;42.584;23.366;2022-08-03T08:54:57;6.60;;;3.70;;
66593;SDS011;53450;42.584;23.366;2022-08-03T08:57:25;18.92;;;4.65;;
66593;SDS011;53450;42.584;23.366;2022-08-03T08:59:58;16.00;;;4.78;;
66593;SDS011;53450;42.584;23.366;2022-08-03T09:02:27;13.48;;;4.07;;
66593;SDS011;53450;42.584;23.366;2022-08-03T09:04:54;5.22;;;3.75;;
66593;SDS011;53450;42.584;23.366;2022-08-03T09:07:20;5.65;;;3.95;;
66593;SDS011;53450;42.584;23.366;2022-08-03T09:10:11;6.95;;;3.70;;
66593;SDS011;53450;42.584;23.366;2022-08-03T09:13:03;13.48;;;3.50;;
66593;SDS011;53450;42.584;23.366;2022-08-03T09:15:30;10.82;;;3.40;;
66593;SDS011;53450;42.584;23.366;2022-08-03T09:18:47;13.43;;;4.22;;
66593;SDS011;53450;42.584;23.366;2022-08-03T09:21:16;5.78;;;3.20;;
66593;SDS011;53450;42.584;23.366;2022-08-03T09:23:51;11.02;;;3.03;;
66593;SDS011;53450;42.584;23.366;2022-08-03T09:26:19;3.65;;;2.58;;
66593;SDS011;53450;42.584;23.366;2022-08-03T09:31:03;4.88;;;3.03;;
66593;SDS011;53450;42.584;23.366;2022-08-03T09:33:28;4.68;;;3.58;;
66593;SDS011;53450;42.584;23.366;2022-08-03T09:35:54;6.53;;;3.60;;
66593;SDS011;53450;42.584;23.366;2022-08-03T09:38:24;9.50;;;4.72;;
66593;SDS011;53450;42.584;23.366;2022-08-03T09:42:34;21.75;;;4.80;;
66593;SDS011;53450;42.584;23.366;2022-08-03T09:45:02;10.52;;;3.85;;
66593;SDS011;53450;42.584;23.366;2022-08-03T09:47:29;11.07;;;4.03;;
66593;SDS011;53450;42.584;23.366;2022-08-03T09:49:59;11.20;;;4.00;;
66593;SDS011;53450;42.584;23.366;2022-08-03T09:52:38;11.30;;;3.83;;
66593;SDS011;53450;42.584;23.366;2022-08-03T09:55:30;5.82;;;3.80;;
66593;SDS011;53450;42.584;23.366;2022-08-03T09:58:05;8.38;;;2.70;;
66593;SDS011;53450;42.584;23.366;2022-08-03T10:00:33;5.50;;;3.05;;
66593;SDS011;53450;42.584;23.366;2022-08-03T10:03:41;4.10;;;2.95;;
66593;SDS011;53450;42.584;23.366;2022-08-03T10:06:32;4.32;;;3.25;;
66593;SDS011;53450;42.584;23.366;2022-08-03T10:09:23;5.97;;;2.90;;
66593;SDS011;53450;42.584;23.366;2022-08-03T10:11:49;6.93;;;3.55;;
66593;SDS011;53450;42.584;23.366;2022-08-03T10:14:14;17.67;;;3.45;;
66593;SDS011;53450;42.584;23.366;2022-08-03T10:16:44;7.38;;;2.97;;
66593;SDS011;53450;42.584;23.366;2022-08-03T10:19:11;5.78;;;3.00;;
66593;SDS011;53450;42.584;23.366;2022-08-03T10:21:38;5.40;;;3.13;;
66593;SDS011;53450;42.584;23.366;2022-08-03T10:24:14;4.32;;;3.08;;
66593;SDS011;53450;42.584;23.366;2022-08-03T10:26:41;6.18;;;3.47;;
66593;SDS011;53450;42.584;23.366;2022-08-03T10:29:11;13.50;;;4.00;;
66593;SDS011;53450;42.584;23.366;2022-08-03T10:31:43;10.73;;;4.70;;
66593;SDS011;53450;42.584;23.366;2022-08-03T10:34:14;6.32;;;3.30;;
66593;SDS011;53450;42.584;23.366;2022-08-03T10:36:43;8.73;;;3.75;;
66593;SDS011;53450;42.584;23.366;2022-08-03T10:39:09;8.80;;;3.83;;
66593;SDS011;53450;42.584;23.366;2022-08-03T10:41:39;10.02;;;3.42;;
66593;SDS011;53450;42.584;23.366;2022-08-03T10:44:14;7.50;;;3.60;;
66593;SDS011;53450;42.584;23.366;2022-08-03T10:46:43;5.15;;;3.63;;
66593;SDS011;53450;42.584;23.366;2022-08-03T10:49:14;3.47;;;3.17;;
66593;SDS011;53450;42.584;23.366;2022-08-03T10:51:46;31.55;;;4.75;;
66593;SDS011;53450;42.584;23.366;2022-08-03T10:57:42;10.35;;;2.90;;
66593;SDS011;53450;42.584;23.366;2022-08-03T11:00:24;4.75;;;2.58;;
66593;SDS011;53450;42.584;23.366;2022-08-03T11:03:10;8.95;;;3.60;;
66593;SDS011;53450;42.584;23.366;2022-08-03T11:05:42;7.85;;;2.70;;
66593;SDS011;53450;42.584;23.366;2022-08-03T11:10:42;11.65;;;3.15;;
66593;SDS011;53450;42.584;23.366;2022-08-03T11:13:07;6.90;;;3.33;;
66593;SDS011;53450;42.584;23.366;2022-08-03T11:15:34;3.85;;;3.45;;
66593;SDS011;53450;42.584;23.366;2022-08-03T11:18:06;3.60;;;3.30;;
66593;SDS011;53450;42.584;23.366;2022-08-03T11:20:44;3.83;;;3.50;;
66593;SDS011;53450;42.584;23.366;2022-08-03T11:23:39;4.50;;;3.80;;
66593;SDS011;53450;42.584;23.366;2022-08-03T11:26:14;4.82;;;3.90;;
66593;SDS011;53450;42.584;23.366;2022-08-03T11:28:43;8.77;;;3.65;;
66593;SDS011;53450;42.584;23.366;2022-08-03T11:34:03;5.43;;;3.50;;
66593;SDS011;53450;42.584;23.366;2022-08-03T11:39:42;5.65;;;4.22;;
66593;SDS011;53450;42.584;23.366;2022-08-03T11:42:52;4.13;;;3.40;;
66593;SDS011;53450;42.584;23.366;2022-08-03T11:44:59;5.60;;;3.38;;
66593;SDS011;53450;42.584;23.366;2022-08-03T11:47:26;3.70;;;3.40;;
66593;SDS011;53450;42.584;23.366;2022-08-03T11:49:54;7.90;;;3.88;;
66593;SDS011;53450;42.584;23.366;2022-08-03T11:52:26;5.10;;;3.13;;
66593;SDS011;53450;42.584;23.366;2022-08-03T11:54:58;5.10;;;3.88;;
66593;SDS011;53450;42.584;23.366;2022-08-03T11:57:30;4.80;;;4.10;;
66593;SDS011;53450;42.584;23.366;2022-08-03T11:59:57;4.68;;;3.20;;
66593;SDS011;53450;42.584;23.366;2022-08-03T12:02:22;3.05;;;2.80;;
66593;SDS011;53450;42.584;23.366;2022-08-03T12:04:52;33.88;;;4.53;;
66593;SDS011;53450;42.584;23.366;2022-08-03T12:07:24;14.77;;;4.10;;
66593;SDS011;53450;42.584;23.366;2022-08-03T12:10:12;5.65;;;2.88;;
66593;SDS011;53450;42.584;23.366;2022-08-03T12:12:39;5.20;;;2.90;;
66593;SDS011;53450;42.584;23.366;2022-08-03T12:15:06;3.08;;;2.72;;
66593;SDS011;53450;42.584;23.366;2022-08-03T12:17:33;8.35;;;3.00;;
66593;SDS011;53450;42.584;23.366;2022-08-03T12:20:00;2.72;;;2.50;;
66593;SDS011;53450;42.584;23.366;2022-08-03T12:22:36;3.35;;;2.67;;
66593;SDS011;53450;42.584;23.366;2022-08-03T12:25:04;2.50;;;2.30;;
66593;SDS011;53450;42.584;23.366;2022-08-03T12:27:33;4.03;;;2.90;;
66593;SDS011;53450;42.584;23.366;2022-08-03T12:30:24;3.42;;;2.90;;
66593;SDS011;53450;42.584;23.366;2022-08-03T12:33:24;10.07;;;2.40;;
66593;SDS011;53450;42.584;23.366;2022-08-03T12:36:02;7.68;;;2.72;;
66593;SDS011;53450;42.584;23.366;2022-08-03T12:38:32;9.10;;;2.77;;
66593;SDS011;53450;42.584;23.366;2022-08-03T12:41:02;6.95;;;2.92;;
66593;SDS011;53450;42.584;23.366;2022-08-03T12:43:29;14.10;;;3.22;;
66593;SDS011;53450;42.584;23.366;2022-08-03T12:46:11;2.88;;;2.42;;
66593;SDS011;53450;42.584;23.366;2022-08-03T12:54:18;2.55;;;2.35;;
66593;SDS011;53450;42.584;23.366;2022-08-03T12:59:33;11.20;;;2.83;;
66593;SDS011;53450;42.584;23.366;2022-08-03T13:02:17;3.45;;;2.47;;
66593;SDS011;53450;42.584;23.366;2022-08-03T13:04:44;10.40;;;2.72;;
66593;SDS011;53450;42.584;23.366;2022-08-03T13:07:11;3.72;;;2.40;;
66593;SDS011;53450;42.584;23.366;2022-08-03T13:09:44;6.15;;;3.92;;
66593;SDS011;53450;42.584;23.366;2022-08-03T13:12:15;4.00;;;2.83;;
66593;SDS011;53450;42.584;23.366;2022-08-03T13:14:43;3.90;;;2.85;;
66593;SDS011;53450;42.584;23.366;2022-08-03T13:17:10;4.75;;;2.80;;
66593;SDS011;53450;42.584;23.366;2022-08-03T13:19:36;4.32;;;2.60;;
66593;SDS011;53450;42.584;23.366;2022-08-03T13:22:21;13.07;;;3.13;;
66593;SDS011;53450;42.584;23.366;2022-08-03T13:24:50;4.90;;;3.15;;
66593;SDS011;53450;42.584;23.366;2022-08-03T13:27:17;5.80;;;3.10;;
66593;SDS011;53450;42.584;23.366;2022-08-03T13:29:42;5.43;;;2.90;;
66593;SDS011;53450;42.584;23.366;2022-08-03T13:32:08;14.60;;;3.25;;
66593;SDS011;53450;42.584;23.366;2022-08-03T13:35:00;6.85;;;2.90;;
66593;SDS011;53450;42.584;23.366;2022-08-03T13:37:55;3.72;;;2.95;;
66593;SDS011;53450;42.584;23.366;2022-08-03T13:40:20;3.08;;;2.78;;
66593;SDS011;53450;42.584;23.366;2022-08-03T13:42:46;3.67;;;2.83;;
66593;SDS011;53450;42.584;23.366;2022-08-03T13:45:11;13.10;;;3.20;;
66593;SDS011;53450;42.584;23.366;2022-08-03T13:47:37;8.52;;;3.08;;
66593;SDS011;53450;42.584;23.366;2022-08-03T13:50:02;4.80;;;3.33;;
66593;SDS011;53450;42.584;23.366;2022-08-03T13:52:29;4.10;;;2.90;;
66593;SDS011;53450;42.584;23.366;2022-08-03T13:54:56;7.85;;;3.13;;
66593;SDS011;53450;42.584;23.366;2022-08-03T13:57:22;3.38;;;3.08;;
66593;SDS011;53450;42.584;23.366;2022-08-03T13:59:48;4.90;;;3.22;;
66593;SDS011;53450;42.584;23.366;2022-08-03T14:02:14;3.67;;;3.38;;
66593;SDS011;53450;42.584;23.366;2022-08-03T14:04:40;3.88;;;3.58;;
66593;SDS011;53450;42.584;23.366;2022-08-03T14:07:06;4.72;;;3.78;;
66593;SDS011;53450;42.584;23.366;2022-08-03T14:09:31;9.32;;;3.47;;
66593;SDS011;53450;42.584;23.366;2022-08-03T14:11:57;4.05;;;3.10;;
66593;SDS011;53450;42.584;23.366;2022-08-03T14:14:24;52.88;;;5.32;;
66593;SDS011;53450;42.584;23.366;2022-08-03T14:16:50;4.32;;;2.80;;
66593;SDS011;53450;42.584;23.366;2022-08-03T14:19:15;3.80;;;3.30;;
66593;SDS011;53450;42.584;23.366;2022-08-03T14:21:41;5.20;;;3.03;;
66593;SDS011;53450;42.584;23.366;2022-08-03T14:24:06;6.00;;;3.60;;
66593;SDS011;53450;42.584;23.366;2022-08-03T14:26:32;6.32;;;3.33;;
66593;SDS011;53450;42.584;23.366;2022-08-03T14:28:58;8.77;;;3.10;;
66593;SDS011;53450;42.584;23.366;2022-08-03T14:31:24;12.75;;;3.83;;
66593;SDS011;53450;42.584;23.366;2022-08-03T14:33:50;4.60;;;3.42;;
66593;SDS011;53450;42.584;23.366;2022-08-03T14:36:16;8.57;;;3.08;;
66593;SDS011;53450;42.584;23.366;2022-08-03T14:38:42;3.60;;;3.13;;
66593;SDS011;53450;42.584;23.366;2022-08-03T14:41:07;10.02;;;3.65;;
66593;SDS011;53450;42.584;23.366;2022-08-03T14:43:33;3.75;;;2.97;;
66593;SDS011;53450;42.584;23.366;2022-08-03T14:46:01;2.78;;;2.50;;
66593;SDS011;53450;42.584;23.366;2022-08-03T14:48:27;6.78;;;2.97;;
66593;SDS011;53450;42.584;23.366;2022-08-03T14:50:52;5.15;;;3.15;;
66593;SDS011;53450;42.584;23.366;2022-08-03T14:53:19;4.53;;;2.83;;
66593;SDS011;53450;42.584;23.366;2022-08-03T14:55:45;3.38;;;3.00;;
66593;SDS011;53450;42.584;23.366;2022-08-03T14:58:13;4.00;;;2.58;;
66593;SDS011;53450;42.584;23.366;2022-08-03T15:00:42;7.82;;;2.60;;
66593;SDS011;53450;42.584;23.366;2022-08-03T15:03:08;6.45;;;3.47;;
66593;SDS011;53450;42.584;23.366;2022-08-03T15:05:33;4.05;;;3.15;;
66593;SDS011;53450;42.584;23.366;2022-08-03T15:07:59;3.97;;;3.05;;
66593;SDS011;53450;42.584;23.366;2022-08-03T15:10:24;5.72;;;2.70;;
66593;SDS011;53450;42.584;23.366;2022-08-03T15:12:50;3.75;;;2.88;;
66593;SDS011;53450;42.584;23.366;2022-08-03T15:15:16;7.40;;;3.25;;
66593;SDS011;53450;42.584;23.366;2022-08-03T15:17:41;24.38;;;3.83;;
66593;SDS011;53450;42.584;23.366;2022-08-03T15:20:07;3.50;;;3.20;;
66593;SDS011;53450;42.584;23.366;2022-08-03T15:22:33;14.82;;;3.13;;
66593;SDS011;53450;42.584;23.366;2022-08-03T15:24:59;4.65;;;3.00;;
66593;SDS011;53450;42.584;23.366;2022-08-03T15:27:28;2.97;;;2.45;;
66593;SDS011;53450;42.584;23.366;2022-08-03T15:29:53;7.13;;;2.95;;
66593;SDS011;53450;42.584;23.366;2022-08-03T15:32:19;6.07;;;3.40;;
66593;SDS011;53450;42.584;23.366;2022-08-03T15:34:45;5.75;;;2.50;;